createdAt,value
2019-01-17T00:01:23.496Z,6.21
2019-01-17T00:04:11.982Z,6.18
2019-01-17T00:07:00.698Z,6.16
2019-01-17T00:12:44.501Z,6.11
2019-01-17T00:18:14.165Z,6.11
2019-01-17T00:21:02.643Z,6.11
2019-01-17T00:23:51.107Z,6.15
2019-01-17T00:29:18.872Z,6.08
2019-01-17T00:32:07.348Z,6.08
2019-01-17T00:34:55.825Z,6.04
2019-01-17T00:37:44.300Z,6.05
2019-01-17T00:43:28.361Z,6.06
2019-01-17T00:49:25.923Z,6.05
2019-01-17T00:52:14.657Z,6.07
2019-01-17T00:57:58.663Z,6.11
2019-01-17T01:00:47.111Z,6.12
2019-01-17T01:06:16.048Z,6.17
2019-01-17T01:09:04.509Z,6.18
2019-01-17T01:11:52.987Z,6.18
2019-01-17T01:14:41.450Z,6.19
2019-01-17T01:17:30.181Z,6.21
2019-01-17T01:20:18.678Z,6.20
2019-01-17T01:23:07.153Z,6.16
2019-01-17T01:28:36.457Z,6.16
2019-01-17T01:31:24.938Z,6.15
2019-01-17T01:34:13.400Z,6.16
2019-01-17T01:39:42.412Z,6.11
2019-01-17T01:42:31.131Z,6.09
2019-01-17T01:45:19.599Z,6.05
2019-01-17T01:48:08.084Z,6.05
2019-01-17T01:56:21.769Z,5.98
2019-01-17T01:58:51.123Z,5.97
2019-01-17T02:01:20.448Z,5.96
2019-01-17T02:03:49.794Z,5.94
2019-01-17T02:06:19.132Z,5.96
2019-01-17T02:11:42.470Z,5.94
2019-01-17T02:17:05.786Z,5.90
2019-01-17T02:19:35.132Z,5.87
2019-01-17T02:22:35.523Z,5.88
2019-01-17T02:28:06.881Z,5.90
2019-01-17T02:30:36.226Z,5.90
2019-01-17T02:33:05.561Z,5.92
2019-01-17T02:35:35.131Z,5.90
2019-01-17T02:38:04.460Z,5.91
2019-01-17T02:40:33.802Z,5.89
2019-01-17T02:43:03.399Z,5.86
2019-01-17T02:45:32.742Z,5.87
2019-01-17T02:48:02.084Z,5.83
2019-01-17T02:50:31.410Z,5.82
2019-01-17T02:53:00.918Z,5.77
2019-01-17T02:55:30.232Z,5.74
2019-01-17T02:57:59.559Z,5.69
2019-01-17T03:03:09.522Z,5.63
2019-01-17T03:05:38.857Z,5.60
2019-01-17T03:08:08.173Z,5.57
2019-01-17T03:10:48.918Z,5.54
2019-01-17T03:13:18.482Z,5.49
2019-01-17T03:15:48.081Z,5.48
2019-01-17T03:18:17.399Z,5.47
2019-01-17T03:20:46.739Z,5.47
2019-01-17T03:23:16.050Z,5.46
2019-01-17T03:25:45.639Z,5.45
2019-01-17T03:31:29.343Z,5.42
2019-01-17T03:33:58.653Z,5.37
2019-01-17T03:36:28.006Z,5.34
2019-01-17T03:38:57.314Z,5.34
2019-01-17T03:41:26.657Z,5.31
2019-01-17T03:43:55.982Z,5.28
2019-01-17T03:46:26.936Z,5.30
2019-01-17T03:48:56.256Z,5.33
2019-01-17T03:51:25.590Z,5.33
2019-01-17T03:53:54.914Z,5.33
2019-01-17T03:56:24.245Z,5.33
2019-01-17T03:58:53.823Z,5.32
2019-01-17T04:01:23.157Z,5.33
2019-01-17T04:03:52.470Z,5.34
2019-01-17T04:06:21.811Z,5.37
2019-01-17T04:08:51.432Z,5.38
2019-01-17T04:11:20.752Z,5.36
2019-01-17T04:13:50.095Z,5.36
2019-01-17T04:16:19.650Z,5.35
2019-01-17T04:18:48.984Z,5.34
2019-01-17T04:21:19.916Z,5.36
2019-01-17T04:23:49.590Z,5.38
2019-01-17T04:26:18.912Z,5.43
2019-01-17T04:28:48.310Z,5.43
2019-01-17T04:31:17.634Z,5.42
2019-01-17T04:33:46.959Z,5.42
2019-01-17T04:36:16.613Z,5.39
2019-01-17T04:38:45.929Z,5.38
2019-01-17T04:43:57.869Z,5.38
2019-01-17T04:46:27.222Z,5.39
2019-01-17T04:48:58.158Z,5.41
2019-01-17T04:51:27.494Z,5.42
2019-01-17T04:53:56.828Z,5.47
2019-01-17T04:56:26.146Z,5.49
2019-01-17T04:58:55.502Z,5.50
2019-01-17T05:01:24.810Z,5.50
2019-01-17T05:03:54.152Z,5.51
2019-01-17T05:06:23.475Z,5.50
2019-01-17T05:08:52.814Z,5.42
2019-01-17T05:11:23.747Z,5.53
2019-01-17T05:13:53.083Z,5.54
2019-01-17T05:16:22.404Z,5.54
2019-01-17T05:19:31.815Z,5.53
2019-01-17T05:22:01.138Z,5.54
2019-01-17T05:24:49.613Z,5.55
2019-01-17T05:27:19.261Z,5.55
2019-01-17T05:29:48.644Z,5.59
2019-01-17T05:32:18.018Z,5.60
2019-01-17T05:34:47.657Z,5.59
2019-01-17T05:37:16.990Z,5.60
2019-01-17T05:39:47.926Z,5.61
2019-01-17T05:42:17.265Z,5.62
2019-01-17T05:44:46.586Z,5.63
2019-01-17T05:47:15.918Z,5.63
2019-01-17T05:49:45.073Z,5.64
2019-01-17T05:52:14.389Z,5.64
2019-01-17T05:54:43.705Z,5.62
2019-01-17T05:57:13.047Z,5.62
2019-01-17T05:59:42.384Z,5.60
2019-01-17T06:05:13.569Z,5.59
2019-01-17T06:07:42.922Z,5.59
2019-01-17T06:16:10.105Z,5.56
2019-01-17T06:18:39.508Z,5.57
2019-01-17T06:21:08.841Z,5.55
2019-01-17T06:23:38.410Z,5.55
2019-01-17T06:26:09.446Z,5.58
2019-01-17T06:28:38.773Z,5.57
2019-01-17T06:31:08.099Z,5.60
2019-01-17T06:33:37.433Z,5.60
2019-01-17T06:36:06.775Z,5.61
2019-01-17T06:38:36.347Z,5.62
2019-01-17T06:41:05.669Z,5.63
2019-01-17T06:43:35.013Z,5.63
2019-01-17T06:46:04.422Z,5.64
2019-01-17T06:48:33.750Z,5.67
2019-01-17T06:51:03.086Z,5.63
2019-01-17T06:53:32.427Z,5.65
2019-01-17T06:56:01.767Z,5.63
2019-01-17T06:58:31.128Z,5.59
2019-01-17T07:01:00.474Z,5.53
2019-01-17T07:03:29.971Z,5.54
2019-01-17T07:05:59.299Z,5.52
2019-01-17T07:08:28.628Z,5.51
2019-01-17T07:10:57.977Z,5.49
2019-01-17T07:13:27.297Z,5.47
2019-01-17T07:15:56.631Z,5.44
2019-01-17T07:18:25.967Z,5.43
2019-01-17T07:20:55.304Z,5.42
2019-01-17T07:23:24.647Z,5.47
2019-01-17T07:25:54.217Z,5.52
2019-01-17T07:28:23.554Z,5.55
2019-01-17T07:30:53.135Z,5.56
2019-01-17T07:33:22.474Z,5.55
2019-01-17T07:35:51.795Z,5.56
2019-01-17T07:38:21.148Z,5.58
2019-01-17T07:40:50.494Z,5.57
2019-01-17T07:43:19.818Z,5.54
2019-01-17T07:45:49.164Z,5.53
2019-01-17T07:48:18.488Z,5.53
2019-01-17T07:50:47.823Z,5.51
2019-01-17T07:53:17.158Z,5.52
2019-01-17T07:55:47.642Z,5.51
2019-01-17T07:58:36.624Z,5.48
2019-01-17T08:01:25.074Z,5.43
2019-01-17T08:03:54.460Z,5.43
2019-01-17T08:06:23.780Z,5.44
2019-01-17T08:08:53.394Z,5.43
2019-01-17T08:11:22.716Z,5.44
2019-01-17T08:13:52.063Z,5.45
2019-01-17T08:16:21.393Z,5.42
2019-01-17T08:18:52.353Z,5.45
2019-01-17T08:21:21.685Z,5.48
2019-01-17T08:23:51.021Z,5.48
2019-01-17T08:26:39.466Z,5.49
2019-01-17T08:29:08.872Z,5.51
2019-01-17T08:31:38.199Z,5.55
2019-01-17T08:34:07.543Z,5.77
2019-01-17T08:36:36.869Z,6.08
2019-01-17T08:39:46.263Z,6.26
2019-01-17T08:42:15.592Z,6.29
2019-01-17T08:44:44.920Z,6.39
2019-01-17T08:47:14.246Z,6.54
2019-01-17T08:49:43.588Z,6.68
2019-01-17T08:52:12.915Z,6.88
2019-01-17T08:54:42.569Z,7.00
2019-01-17T08:57:12.691Z,7.03
2019-01-17T08:59:42.029Z,7.08
2019-01-17T09:02:12.123Z,7.17
2019-01-17T09:04:41.449Z,7.14
2019-01-17T09:07:10.791Z,6.99
2019-01-17T09:09:40.121Z,6.81
2019-01-17T09:12:09.463Z,6.65
2019-01-17T09:14:38.789Z,6.61
2019-01-17T09:17:08.121Z,6.72
2019-01-17T09:19:37.460Z,6.97
2019-01-17T09:22:06.801Z,7.23
2019-01-17T09:24:36.127Z,7.45
2019-01-17T09:27:05.476Z,7.56
2019-01-17T09:29:35.144Z,7.73
2019-01-17T09:32:04.735Z,7.89
2019-01-17T09:34:34.364Z,8.18
2019-01-17T09:37:03.714Z,8.15
2019-01-17T09:39:33.035Z,7.87
2019-01-17T09:42:02.414Z,7.77
2019-01-17T09:44:31.781Z,7.90
2019-01-17T09:47:01.389Z,8.09
2019-01-17T09:49:30.731Z,8.35
2019-01-17T09:52:00.057Z,8.55
2019-01-17T09:54:29.394Z,8.56
2019-01-17T09:56:58.720Z,8.50
2019-01-17T09:59:28.078Z,8.67
2019-01-17T10:01:57.704Z,8.83
2019-01-17T10:04:27.064Z,8.84
2019-01-17T10:06:56.389Z,8.82
2019-01-17T10:09:25.725Z,8.73
2019-01-17T10:11:55.059Z,8.52
2019-01-17T10:14:24.407Z,8.44
2019-01-17T10:20:52.860Z,8.21
2019-01-17T10:30:06.666Z,7.56
2019-01-17T10:36:16.847Z,7.27
2019-01-17T10:39:26.226Z,7.15
2019-01-17T10:46:08.140Z,7.04
2019-01-17T10:49:16.213Z,6.94
2019-01-17T10:52:24.257Z,6.87
2019-01-17T10:55:32.325Z,6.85
2019-01-17T10:58:40.363Z,6.93
2019-01-17T11:05:10.592Z,6.92
2019-01-17T11:11:20.141Z,6.83
2019-01-17T11:14:29.507Z,6.83
2019-01-17T11:20:39.961Z,6.77
2019-01-17T11:23:49.323Z,6.67
2019-01-17T11:26:57.372Z,6.62
2019-01-17T11:30:06.773Z,6.58
2019-01-17T11:33:14.873Z,6.48
2019-01-17T11:36:24.316Z,6.44
2019-01-17T11:39:14.904Z,6.42
2019-01-17T11:42:23.062Z,6.39
2019-01-17T11:45:31.104Z,6.32
2019-01-17T11:48:40.484Z,6.33
2019-01-17T11:54:50.654Z,6.29
2019-01-17T11:57:58.717Z,6.22
2019-01-17T12:04:41.109Z,5.96
2019-01-17T12:10:12.800Z,5.50
2019-01-17T12:15:22.682Z,5.37
2019-01-17T12:21:01.139Z,5.37
2019-01-17T12:23:30.461Z,5.40
2019-01-17T12:28:55.210Z,5.40
2019-01-17T12:31:24.563Z,5.41
2019-01-17T12:33:53.894Z,5.43
2019-01-17T12:36:23.211Z,5.38
2019-01-17T12:38:52.778Z,5.42
2019-01-17T12:41:22.106Z,5.45
2019-01-17T12:43:51.682Z,5.45
2019-01-17T12:46:21.021Z,5.46
2019-01-17T12:48:50.579Z,5.45
2019-01-17T12:51:39.522Z,5.47
2019-01-17T12:54:09.112Z,5.45
2019-01-17T12:56:38.443Z,5.38
2019-01-17T12:59:07.775Z,5.37
2019-01-17T13:01:37.091Z,5.40
2019-01-17T13:04:06.497Z,5.34
2019-01-17T13:09:38.762Z,5.27
2019-01-17T13:12:08.090Z,5.32
2019-01-17T13:14:37.424Z,5.33
2019-01-17T13:17:06.746Z,5.39
2019-01-17T13:22:38.078Z,5.36
2019-01-17T13:28:09.410Z,5.26
2019-01-17T13:30:40.375Z,5.25
2019-01-17T13:33:09.694Z,5.27
2019-01-17T13:35:39.022Z,5.25
2019-01-17T13:38:08.356Z,5.20
2019-01-17T13:40:37.754Z,5.19
2019-01-17T13:43:07.105Z,5.18
2019-01-17T13:45:36.425Z,5.15
2019-01-17T13:48:05.878Z,5.15
2019-01-17T13:50:35.212Z,5.15
2019-01-17T13:56:38.968Z,5.14
2019-01-17T13:59:08.302Z,5.06
2019-01-17T14:01:39.238Z,5.00
2019-01-17T14:04:08.572Z,4.99
2019-01-17T14:06:37.893Z,4.99
2019-01-17T14:09:47.352Z,4.99
2019-01-17T14:12:17.440Z,4.97
2019-01-17T14:14:46.774Z,4.95
2019-01-17T14:17:16.097Z,4.94
2019-01-17T14:19:45.462Z,4.88
2019-01-17T14:22:14.859Z,4.77
2019-01-17T14:24:44.187Z,4.69
2019-01-17T14:27:14.162Z,4.66
2019-01-17T14:33:05.994Z,4.68
2019-01-17T14:35:35.326Z,4.65
2019-01-17T14:38:04.715Z,4.68
2019-01-17T14:40:34.046Z,4.76
2019-01-17T14:43:03.366Z,4.74
2019-01-17T14:45:32.710Z,4.80
2019-01-17T14:48:02.073Z,4.77
2019-01-17T14:53:33.216Z,4.75
2019-01-17T14:56:02.553Z,4.74
2019-01-17T14:58:31.876Z,4.75
2019-01-17T15:01:01.205Z,4.68
2019-01-17T15:03:43.108Z,4.61
2019-01-17T15:06:12.440Z,4.61
2019-01-17T15:09:01.103Z,4.59
2019-01-17T15:11:30.443Z,4.59
2019-01-17T15:14:19.105Z,4.57
2019-01-17T15:16:48.441Z,4.54
2019-01-17T15:19:20.125Z,4.54
2019-01-17T15:21:49.699Z,4.50
2019-01-17T15:24:19.016Z,4.54
2019-01-17T15:26:50.516Z,4.50
2019-01-17T15:29:19.841Z,4.51
2019-01-17T15:31:49.174Z,4.51
2019-01-17T15:34:18.488Z,4.54
2019-01-17T15:36:47.854Z,4.55
2019-01-17T15:39:17.174Z,4.58
2019-01-17T15:41:46.521Z,4.57
2019-01-17T15:44:15.843Z,4.53
2019-01-17T15:46:57.325Z,4.37
2019-01-17T15:49:38.672Z,4.12
2019-01-17T15:52:20.560Z,3.89
2019-01-17T15:54:49.888Z,3.87
2019-01-17T15:57:19.222Z,3.87
2019-01-17T15:59:48.546Z,3.64
2019-01-17T16:02:38.648Z,3.46
2019-01-17T16:05:20.406Z,3.13
2019-01-17T16:07:50.041Z,3.13
2019-01-17T16:10:19.363Z,3.08
2019-01-17T16:12:48.697Z,3.05
2019-01-17T16:18:21.985Z,3.00
2019-01-17T16:21:03.625Z,2.95
2019-01-17T16:23:32.954Z,2.95
2019-01-17T16:26:02.304Z,3.02
2019-01-17T16:28:46.085Z,3.05
2019-01-17T16:31:28.973Z,3.08
2019-01-17T16:33:58.298Z,3.08
2019-01-17T16:36:29.672Z,3.08
2019-01-17T16:39:11.982Z,3.14
2019-01-17T16:41:41.682Z,3.18
2019-01-17T16:44:12.940Z,3.18
2019-01-17T16:46:42.274Z,3.21
2019-01-17T16:49:30.934Z,3.22
2019-01-17T16:52:00.533Z,3.22
2019-01-17T16:54:49.194Z,3.38
2019-01-17T16:57:18.862Z,3.38
2019-01-17T17:03:28.756Z,3.39
2019-01-17T17:05:58.087Z,3.21
2019-01-17T17:08:27.411Z,3.04
2019-01-17T17:10:56.751Z,2.85
2019-01-17T17:13:45.406Z,2.65
2019-01-17T17:16:14.742Z,2.65
2019-01-17T17:18:44.063Z,2.55
2019-01-17T17:21:13.396Z,2.51
2019-01-17T17:23:42.715Z,2.43
2019-01-17T17:26:24.136Z,2.40
2019-01-17T17:28:53.460Z,2.40
2019-01-17T17:31:23.612Z,2.44
2019-01-17T17:33:52.911Z,2.48
2019-01-17T17:36:22.249Z,2.52
2019-01-17T17:38:53.425Z,2.59
2019-01-17T17:41:42.101Z,2.62
2019-01-17T17:44:11.425Z,2.68
2019-01-17T17:47:00.104Z,2.71
2019-01-17T17:49:29.427Z,2.71
2019-01-17T17:51:58.830Z,2.74
2019-01-17T17:54:28.146Z,2.77
2019-01-17T17:56:57.512Z,2.78
2019-01-17T17:59:39.010Z,2.78
2019-01-17T18:07:48.614Z,2.70
2019-01-17T18:10:18.014Z,2.64
2019-01-17T18:13:05.953Z,2.57
2019-01-17T18:15:35.323Z,2.57
2019-01-17T18:18:23.912Z,2.59
2019-01-17T18:20:53.301Z,2.61
2019-01-17T18:23:42.398Z,2.60
2019-01-17T18:26:15.929Z,2.60
2019-01-17T18:28:45.587Z,2.57
2019-01-17T18:31:27.382Z,2.57
2019-01-17T18:33:56.698Z,2.57
2019-01-17T18:36:27.644Z,2.59
2019-01-17T18:38:57.287Z,2.59
2019-01-17T18:41:46.197Z,2.65
2019-01-17T18:44:15.520Z,2.65
2019-01-17T18:46:44.851Z,2.69
2019-01-17T18:49:14.169Z,2.66
2019-01-17T18:51:43.514Z,2.66
2019-01-17T18:54:12.836Z,2.69
2019-01-17T18:56:42.179Z,2.70
2019-01-17T18:59:11.575Z,2.71
2019-01-17T19:01:40.914Z,2.74
2019-01-17T19:04:11.854Z,2.77
2019-01-17T19:07:00.532Z,2.86
2019-01-17T19:09:29.855Z,2.86
2019-01-17T19:11:59.431Z,2.89
2019-01-17T19:14:28.755Z,2.80
2019-01-17T19:16:58.095Z,2.80
2019-01-17T19:19:29.036Z,2.81
2019-01-17T19:21:58.666Z,2.80
2019-01-17T19:24:27.951Z,2.80
2019-01-17T19:26:57.285Z,2.82
2019-01-17T19:29:26.608Z,2.84
2019-01-17T19:31:55.947Z,2.80
2019-01-17T19:37:21.093Z,2.78
2019-01-17T19:39:50.410Z,2.82
2019-01-17T19:42:39.085Z,2.82
2019-01-17T19:45:48.466Z,2.82
2019-01-17T19:48:17.818Z,2.81
2019-01-17T19:50:47.125Z,2.79
2019-01-17T19:53:16.463Z,2.74
2019-01-17T19:55:45.786Z,2.76
2019-01-17T19:58:15.126Z,2.69
2019-01-17T20:00:44.450Z,2.68
2019-01-17T20:03:14.390Z,2.68
2019-01-17T20:05:43.717Z,2.68
2019-01-17T20:08:13.055Z,2.70
2019-01-17T20:10:42.383Z,2.67
2019-01-17T20:13:11.793Z,2.67
2019-01-17T20:15:41.118Z,2.64
2019-01-17T20:18:12.076Z,2.64
2019-01-17T20:20:41.409Z,2.58
2019-01-17T20:23:10.752Z,2.57
2019-01-17T20:25:40.078Z,2.57
2019-01-17T20:28:21.864Z,2.56
2019-01-17T20:30:51.187Z,2.56
2019-01-17T20:33:40.207Z,2.57
2019-01-17T20:36:09.530Z,2.59
2019-01-17T20:38:58.213Z,2.60
2019-01-17T20:41:39.874Z,2.62
2019-01-17T20:44:09.218Z,2.62
2019-01-17T20:46:38.546Z,2.67
2019-01-17T20:49:20.469Z,2.65
2019-01-17T20:52:02.447Z,2.62
2019-01-17T20:54:31.860Z,2.62
2019-01-17T20:57:01.182Z,2.58
2019-01-17T20:59:30.525Z,2.59
2019-01-17T21:02:19.205Z,2.58
2019-01-17T21:04:48.531Z,2.63
2019-01-17T21:07:17.872Z,2.65
2019-01-17T21:09:47.192Z,2.66
2019-01-17T21:12:16.529Z,2.67
2019-01-17T21:14:45.919Z,2.64
2019-01-17T21:17:36.639Z,2.62
2019-01-17T21:20:47.640Z,2.63
2019-01-17T21:23:16.984Z,2.62
2019-01-17T21:25:46.305Z,2.67
2019-01-17T21:28:54.092Z,2.64
2019-01-17T21:31:23.422Z,2.64
2019-01-17T21:33:53.039Z,2.60
2019-01-17T21:36:23.983Z,2.53
2019-01-17T21:39:33.334Z,2.50
2019-01-17T21:42:02.659Z,2.45
2019-01-17T21:44:32.929Z,2.41
2019-01-17T21:47:02.261Z,2.41
2019-01-17T21:49:31.595Z,2.39
2019-01-17T21:52:00.919Z,2.36
2019-01-17T21:54:30.254Z,2.33
2019-01-17T21:56:59.579Z,2.36
2019-01-17T21:59:28.923Z,2.39
2019-01-17T22:01:58.243Z,2.38
2019-01-17T22:04:27.581Z,2.38
2019-01-17T22:06:56.902Z,2.40
2019-01-17T22:09:33.945Z,2.37
2019-01-17T22:12:03.287Z,2.34
2019-01-17T22:14:32.859Z,2.34
2019-01-17T22:17:04.055Z,2.34
2019-01-17T22:19:33.395Z,2.34
2019-01-17T22:22:02.955Z,2.34
2019-01-17T22:24:32.298Z,2.32
2019-01-17T22:27:01.668Z,2.34
2019-01-17T22:29:31.007Z,2.33
2019-01-17T22:32:00.325Z,2.33
2019-01-17T22:34:29.666Z,2.35
2019-01-17T22:36:59.250Z,2.37
2019-01-17T22:39:40.549Z,2.41
2019-01-17T22:42:09.874Z,2.41
2019-01-17T22:44:39.278Z,2.44
2019-01-17T22:47:08.609Z,2.49
2019-01-17T22:49:38.188Z,2.53
2019-01-17T22:52:07.511Z,2.61
2019-01-17T22:54:36.853Z,2.64
2019-01-17T22:57:06.174Z,2.70
2019-01-17T22:59:35.508Z,2.72
2019-01-17T23:02:06.535Z,2.70
2019-01-17T23:04:35.871Z,2.65
2019-01-17T23:07:05.585Z,2.62
2019-01-17T23:09:35.172Z,2.62
2019-01-17T23:12:04.560Z,2.61
2019-01-17T23:14:46.079Z,2.60
2019-01-17T23:17:15.397Z,2.60
2019-01-17T23:19:44.743Z,2.62
2019-01-17T23:22:14.066Z,2.60
2019-01-17T23:24:43.846Z,2.65
2019-01-17T23:27:13.295Z,2.67
2019-01-17T23:29:42.644Z,2.70
2019-01-17T23:32:24.515Z,2.71
2019-01-17T23:34:53.862Z,2.71
2019-01-17T23:41:15.017Z,2.68
2019-01-17T23:44:01.429Z,2.64
2019-01-17T23:46:32.505Z,2.55
